createdAt,value
2019-01-29T00:00:28.621Z,990.66
2019-01-29T00:01:28.534Z,990.71
2019-01-29T00:02:28.446Z,990.71
2019-01-29T00:03:28.360Z,990.70
2019-01-29T00:04:28.270Z,990.72
2019-01-29T00:05:28.183Z,990.71
2019-01-29T00:06:28.095Z,990.74
2019-01-29T00:07:28.009Z,990.72
2019-01-29T00:08:27.922Z,990.76
2019-01-29T00:09:27.835Z,990.79
2019-01-29T00:10:27.748Z,990.81
2019-01-29T00:11:27.660Z,990.78
2019-01-29T00:12:27.571Z,990.79
2019-01-29T00:13:27.484Z,990.82
2019-01-29T00:14:27.397Z,990.85
2019-01-29T00:15:27.310Z,990.82
2019-01-29T00:16:27.222Z,990.81
2019-01-29T00:17:27.186Z,990.86
2019-01-29T00:18:27.061Z,990.85
2019-01-29T00:19:26.960Z,990.83
2019-01-29T00:20:26.872Z,990.88
2019-01-29T00:21:26.786Z,990.87
2019-01-29T00:22:33.304Z,990.92
2019-01-29T00:23:26.623Z,990.96
2019-01-29T00:24:26.535Z,990.97
2019-01-29T00:25:26.447Z,991.01
2019-01-29T00:26:26.361Z,991.03
2019-01-29T00:27:26.273Z,991.01
2019-01-29T00:28:26.186Z,991.03
2019-01-29T00:29:26.098Z,991.09
2019-01-29T00:30:26.015Z,991.11
2019-01-29T00:31:25.924Z,991.10
2019-01-29T00:32:25.844Z,991.13
2019-01-29T00:33:25.748Z,991.10
2019-01-29T00:34:25.661Z,991.14
2019-01-29T00:35:25.573Z,991.16
2019-01-29T00:36:25.487Z,991.16
2019-01-29T00:37:25.415Z,991.22
2019-01-29T00:38:25.313Z,991.23
2019-01-29T00:39:25.224Z,991.24
2019-01-29T00:40:25.139Z,991.29
2019-01-29T00:41:25.050Z,991.21
2019-01-29T00:42:24.962Z,991.27
2019-01-29T00:43:24.876Z,991.25
2019-01-29T00:44:24.788Z,991.26
2019-01-29T00:45:24.700Z,991.28
2019-01-29T00:46:24.614Z,991.31
2019-01-29T00:47:24.537Z,991.30
2019-01-29T00:48:24.438Z,991.29
2019-01-29T00:49:24.352Z,991.37
2019-01-29T00:50:24.275Z,991.37
2019-01-29T00:51:24.197Z,991.37
2019-01-29T00:52:24.100Z,991.42
2019-01-29T00:53:24.013Z,991.36
2019-01-29T00:54:23.938Z,991.48
2019-01-29T00:55:23.841Z,991.47
2019-01-29T00:56:23.750Z,991.43
2019-01-29T00:57:23.667Z,991.54
2019-01-29T00:58:23.576Z,991.57
2019-01-29T00:59:23.489Z,991.56
2019-01-29T01:00:23.401Z,991.60
2019-01-29T01:01:23.326Z,991.61
2019-01-29T01:02:23.229Z,991.61
2019-01-29T01:03:23.140Z,991.62
2019-01-29T01:04:23.052Z,991.62
2019-01-29T01:05:22.965Z,991.63
2019-01-29T01:06:22.877Z,991.73
2019-01-29T01:07:22.790Z,991.73
2019-01-29T01:08:22.702Z,991.74
2019-01-29T01:09:22.616Z,991.72
2019-01-29T01:10:22.528Z,991.75
2019-01-29T01:11:22.441Z,991.77
2019-01-29T01:12:22.353Z,991.79
2019-01-29T01:13:22.265Z,991.80
2019-01-29T01:14:22.178Z,991.80
2019-01-29T01:15:22.092Z,991.77
2019-01-29T01:16:22.003Z,991.88
2019-01-29T01:17:21.917Z,991.81
2019-01-29T01:18:21.829Z,991.88
2019-01-29T01:19:21.753Z,991.88
2019-01-29T01:20:21.654Z,991.84
2019-01-29T01:21:21.578Z,991.92
2019-01-29T01:22:21.492Z,991.90
2019-01-29T01:23:21.404Z,991.94
2019-01-29T01:24:21.305Z,991.94
2019-01-29T01:25:21.229Z,991.99
2019-01-29T01:26:21.142Z,991.98
2019-01-29T01:27:21.054Z,992.00
2019-01-29T01:28:20.967Z,992.02
2019-01-29T01:29:20.880Z,992.03
2019-01-29T01:30:20.797Z,992.00
2019-01-29T01:31:20.704Z,992.06
2019-01-29T01:32:20.618Z,992.06
2019-01-29T01:33:20.529Z,992.11
2019-01-29T01:34:20.444Z,992.08
2019-01-29T01:35:20.355Z,992.10
2019-01-29T01:36:20.257Z,992.13
2019-01-29T01:37:20.179Z,992.13
2019-01-29T01:38:20.093Z,992.16
2019-01-29T01:39:20.020Z,992.15
2019-01-29T01:40:19.918Z,992.17
2019-01-29T01:41:19.822Z,992.20
2019-01-29T01:42:19.731Z,992.21
2019-01-29T01:43:19.646Z,992.23
2019-01-29T01:44:19.556Z,992.24
2019-01-29T01:45:19.469Z,992.24
2019-01-29T01:46:19.381Z,992.29
2019-01-29T01:47:19.294Z,992.29
2019-01-29T01:48:19.206Z,992.38
2019-01-29T01:49:19.119Z,992.38
2019-01-29T01:50:19.031Z,992.39
2019-01-29T01:51:18.944Z,992.40
2019-01-29T01:52:18.872Z,992.37
2019-01-29T01:53:18.769Z,992.43
2019-01-29T01:54:18.681Z,992.46
2019-01-29T01:55:18.595Z,992.43
2019-01-29T01:56:18.507Z,992.46
2019-01-29T01:57:18.424Z,992.51
2019-01-29T01:58:18.332Z,992.50
2019-01-29T01:59:18.247Z,992.56
2019-01-29T02:00:18.157Z,992.62
2019-01-29T02:01:18.071Z,992.57
2019-01-29T02:02:17.986Z,992.63
2019-01-29T02:03:17.895Z,992.65
2019-01-29T02:04:17.808Z,992.65
2019-01-29T02:05:17.721Z,992.71
2019-01-29T02:06:17.632Z,992.74
2019-01-29T02:07:17.547Z,992.72
2019-01-29T02:08:17.458Z,992.70
2019-01-29T02:09:17.372Z,992.76
2019-01-29T02:10:17.282Z,992.71
2019-01-29T02:11:17.196Z,992.75
2019-01-29T02:12:17.108Z,992.77
2019-01-29T02:13:17.010Z,992.75
2019-01-29T02:14:16.936Z,992.77
2019-01-29T02:15:16.847Z,992.84
2019-01-29T02:16:16.748Z,992.83
2019-01-29T02:17:16.659Z,992.92
2019-01-29T02:18:16.576Z,992.88
2019-01-29T02:19:16.485Z,992.93
2019-01-29T02:20:16.405Z,992.92
2019-01-29T02:21:16.309Z,992.97
2019-01-29T02:22:16.223Z,992.97
2019-01-29T02:23:16.135Z,993.02
2019-01-29T02:24:16.048Z,993.00
2019-01-29T02:25:15.960Z,993.03
2019-01-29T02:26:15.874Z,993.11
2019-01-29T02:27:15.786Z,993.09
2019-01-29T02:28:15.698Z,993.09
2019-01-29T02:29:15.623Z,993.11
2019-01-29T02:30:15.526Z,993.18
2019-01-29T02:31:15.436Z,993.16
2019-01-29T02:32:15.348Z,993.19
2019-01-29T02:33:15.273Z,993.24
2019-01-29T02:34:15.174Z,993.21
2019-01-29T02:35:15.088Z,993.24
2019-01-29T02:36:14.998Z,993.22
2019-01-29T02:37:14.912Z,993.31
2019-01-29T02:38:14.838Z,993.31
2019-01-29T02:39:14.737Z,993.35
2019-01-29T02:40:14.650Z,993.32
2019-01-29T02:41:14.561Z,993.33
2019-01-29T02:42:14.476Z,993.30
2019-01-29T02:43:14.386Z,993.32
2019-01-29T02:44:14.303Z,993.38
2019-01-29T02:45:14.213Z,993.38
2019-01-29T02:46:14.125Z,993.41
2019-01-29T02:47:14.038Z,993.45
2019-01-29T02:48:13.951Z,993.46
2019-01-29T02:49:13.864Z,993.46
2019-01-29T02:50:13.764Z,993.44
2019-01-29T02:51:13.687Z,993.47
2019-01-29T02:52:13.588Z,993.48
2019-01-29T02:53:18.305Z,993.50
2019-01-29T02:54:13.426Z,993.45
2019-01-29T02:55:13.327Z,993.53
2019-01-29T02:56:13.238Z,993.51
2019-01-29T02:57:13.155Z,993.55
2019-01-29T02:58:13.063Z,993.57
2019-01-29T02:59:12.977Z,993.54
2019-01-29T03:00:12.892Z,993.60
2019-01-29T03:01:12.801Z,993.61
2019-01-29T03:02:12.716Z,993.59
2019-01-29T03:03:12.627Z,993.61
2019-01-29T03:04:12.539Z,993.62
2019-01-29T03:05:12.453Z,993.62
2019-01-29T03:06:12.364Z,993.69
2019-01-29T03:07:12.284Z,993.67
2019-01-29T03:08:12.189Z,993.73
2019-01-29T03:09:12.104Z,993.76
2019-01-29T03:10:12.014Z,993.80
2019-01-29T03:11:11.928Z,993.85
2019-01-29T03:12:11.852Z,993.82
2019-01-29T03:13:11.754Z,993.86
2019-01-29T03:14:11.669Z,993.91
2019-01-29T03:15:11.579Z,993.90
2019-01-29T03:16:11.490Z,993.94
2019-01-29T03:17:11.390Z,993.95
2019-01-29T03:18:11.315Z,993.99
2019-01-29T03:19:11.216Z,994.00
2019-01-29T03:20:11.133Z,994.04
2019-01-29T03:21:11.042Z,994.00
2019-01-29T03:22:10.956Z,994.04
2019-01-29T03:23:10.868Z,994.05
2019-01-29T03:24:10.781Z,994.03
2019-01-29T03:25:10.692Z,994.07
2019-01-29T03:26:10.603Z,994.05
2019-01-29T03:27:10.516Z,994.10
2019-01-29T03:28:10.430Z,994.05
2019-01-29T03:29:10.345Z,994.11
2019-01-29T03:30:10.259Z,994.16
2019-01-29T03:31:10.167Z,994.11
2019-01-29T03:32:10.081Z,994.20
2019-01-29T03:33:09.993Z,994.19
2019-01-29T03:34:09.893Z,994.16
2019-01-29T03:35:09.805Z,994.20
2019-01-29T03:36:09.718Z,994.21
2019-01-29T03:37:09.631Z,994.25
2019-01-29T03:38:09.543Z,994.21
2019-01-29T03:39:09.464Z,994.24
2019-01-29T03:40:09.380Z,994.29
2019-01-29T03:41:09.281Z,994.28
2019-01-29T03:42:09.197Z,994.30
2019-01-29T03:43:09.106Z,994.30
2019-01-29T03:44:09.019Z,994.32
2019-01-29T03:45:08.932Z,994.34
2019-01-29T03:46:08.855Z,994.35
2019-01-29T03:47:08.757Z,994.40
2019-01-29T03:48:08.668Z,994.42
2019-01-29T03:49:08.569Z,994.41
2019-01-29T03:50:08.483Z,994.54
2019-01-29T03:51:08.397Z,994.49
2019-01-29T03:52:08.306Z,994.52
2019-01-29T03:53:08.219Z,994.50
2019-01-29T03:54:08.133Z,994.50
2019-01-29T03:55:08.050Z,994.56
2019-01-29T03:56:07.958Z,994.60
2019-01-29T03:57:07.871Z,994.50
2019-01-29T03:58:07.782Z,994.60
2019-01-29T03:59:07.707Z,994.61
2019-01-29T04:00:07.609Z,994.67
2019-01-29T04:01:07.522Z,994.58
2019-01-29T04:02:07.438Z,994.66
2019-01-29T04:03:07.345Z,994.69
2019-01-29T04:04:07.245Z,994.73
2019-01-29T04:05:07.158Z,994.75
2019-01-29T04:06:07.070Z,994.74
2019-01-29T04:07:06.986Z,994.74
2019-01-29T04:08:06.909Z,994.81
2019-01-29T04:09:06.811Z,994.83
2019-01-29T04:10:06.720Z,994.79
2019-01-29T04:11:06.635Z,994.84
2019-01-29T04:12:06.545Z,994.87
2019-01-29T04:13:06.459Z,994.82
2019-01-29T04:14:06.371Z,994.88
2019-01-29T04:15:06.296Z,994.88
2019-01-29T04:16:06.197Z,994.90
2019-01-29T04:17:06.104Z,994.90
2019-01-29T04:18:06.012Z,994.93
2019-01-29T04:19:05.923Z,994.93
2019-01-29T04:20:05.836Z,994.96
2019-01-29T04:21:05.746Z,994.95
2019-01-29T04:22:05.663Z,995.03
2019-01-29T04:23:05.604Z,995.04
2019-01-29T04:24:05.485Z,995.12
2019-01-29T04:25:05.403Z,995.10
2019-01-29T04:26:05.310Z,995.12
2019-01-29T04:27:05.225Z,995.15
2019-01-29T04:28:05.136Z,995.16
2019-01-29T04:29:05.047Z,995.14
2019-01-29T04:30:04.960Z,995.15
2019-01-29T04:31:04.874Z,995.20
2019-01-29T04:32:04.774Z,995.21
2019-01-29T04:33:04.688Z,995.26
2019-01-29T04:34:04.601Z,995.26
2019-01-29T04:35:04.511Z,995.21
2019-01-29T04:36:04.425Z,995.21
2019-01-29T04:37:04.338Z,995.29
2019-01-29T04:38:04.248Z,995.29
2019-01-29T04:39:04.163Z,995.28
2019-01-29T04:40:04.086Z,995.22
2019-01-29T04:41:03.987Z,995.29
2019-01-29T04:42:03.900Z,995.30
2019-01-29T04:43:03.816Z,995.35
2019-01-29T04:44:03.725Z,995.30
2019-01-29T04:45:03.625Z,995.31
2019-01-29T04:46:03.543Z,995.43
2019-01-29T04:47:03.466Z,995.37
2019-01-29T04:48:03.364Z,995.42
2019-01-29T04:49:03.276Z,995.42
2019-01-29T04:50:03.191Z,995.45
2019-01-29T04:51:03.113Z,995.46
2019-01-29T04:52:03.013Z,995.47
2019-01-29T04:53:02.925Z,995.47
2019-01-29T04:54:02.838Z,995.49
2019-01-29T04:55:02.750Z,995.45
2019-01-29T04:56:02.663Z,995.49
2019-01-29T04:57:02.578Z,995.53
2019-01-29T04:58:02.488Z,995.48
2019-01-29T04:59:02.400Z,995.56
2019-01-29T05:00:02.300Z,995.51
2019-01-29T05:01:02.219Z,995.56
2019-01-29T05:02:02.125Z,995.56
2019-01-29T05:03:02.038Z,995.58
2019-01-29T05:04:01.951Z,995.61
2019-01-29T05:05:01.865Z,995.60
2019-01-29T05:06:01.777Z,995.63
2019-01-29T05:07:01.690Z,995.63
2019-01-29T05:08:01.602Z,995.60
2019-01-29T05:09:01.517Z,995.62
2019-01-29T05:10:01.426Z,995.65
2019-01-29T05:11:01.340Z,995.64
2019-01-29T05:12:01.240Z,995.68
2019-01-29T05:13:01.165Z,995.69
2019-01-29T05:14:01.065Z,995.67
2019-01-29T05:15:00.976Z,995.71
2019-01-29T05:16:00.890Z,995.70
2019-01-29T05:17:00.806Z,995.72
2019-01-29T05:18:00.717Z,995.77
2019-01-29T05:19:00.627Z,995.75
2019-01-29T05:20:00.541Z,995.78
2019-01-29T05:21:00.457Z,995.82
2019-01-29T05:22:00.367Z,995.87
2019-01-29T05:23:00.289Z,995.86
2019-01-29T05:24:06.605Z,995.91
2019-01-29T05:25:00.144Z,995.88
2019-01-29T05:26:00.003Z,995.92
2019-01-29T05:26:59.916Z,995.91
2019-01-29T05:27:59.829Z,995.96
2019-01-29T05:28:59.753Z,995.94
2019-01-29T05:29:59.654Z,996.01
2019-01-29T05:30:59.567Z,996.01
2019-01-29T05:31:59.480Z,996.00
2019-01-29T05:32:59.392Z,996.03
2019-01-29T05:33:59.307Z,996.04
2019-01-29T05:34:59.216Z,996.01
2019-01-29T05:35:59.143Z,995.99
2019-01-29T05:36:59.042Z,996.05
2019-01-29T05:37:58.947Z,996.06
2019-01-29T05:38:58.866Z,996.00
2019-01-29T05:39:58.773Z,996.03
2019-01-29T05:40:58.679Z,996.03
2019-01-29T05:41:58.592Z,996.02
2019-01-29T05:42:58.507Z,996.07
2019-01-29T05:43:58.419Z,996.05
2019-01-29T05:44:58.332Z,996.11
2019-01-29T05:45:58.243Z,996.13
2019-01-29T05:46:58.159Z,996.15
2019-01-29T05:47:58.056Z,996.12
2019-01-29T05:48:57.973Z,996.18
2019-01-29T05:49:57.880Z,996.20
2019-01-29T05:50:57.794Z,996.21
2019-01-29T05:51:57.707Z,996.24
2019-01-29T05:52:57.619Z,996.24
2019-01-29T05:53:57.531Z,996.29
2019-01-29T05:54:57.444Z,996.30
2019-01-29T05:55:57.369Z,996.28
2019-01-29T05:56:57.273Z,996.29
2019-01-29T05:57:57.169Z,996.29
2019-01-29T05:58:57.081Z,996.35
2019-01-29T05:59:56.995Z,996.36
2019-01-29T06:00:56.906Z,996.31
2019-01-29T06:01:56.820Z,996.34
2019-01-29T06:02:56.733Z,996.34
2019-01-29T06:03:56.645Z,996.38
2019-01-29T06:04:56.559Z,996.40
2019-01-29T06:05:56.458Z,996.44
2019-01-29T06:06:56.372Z,996.43
2019-01-29T06:07:56.282Z,996.47
2019-01-29T06:08:56.195Z,996.50
2019-01-29T06:09:56.120Z,996.52
2019-01-29T06:10:56.021Z,996.52
2019-01-29T06:11:55.932Z,996.54
2019-01-29T06:12:55.847Z,996.55
2019-01-29T06:13:55.758Z,996.55
2019-01-29T06:14:55.660Z,996.60
2019-01-29T06:15:55.571Z,996.60
2019-01-29T06:16:55.483Z,996.61
2019-01-29T06:17:55.398Z,996.64
2019-01-29T06:18:55.309Z,996.60
2019-01-29T06:19:55.296Z,996.68
2019-01-29T06:20:55.134Z,996.71
2019-01-29T06:21:55.038Z,996.72
2019-01-29T06:22:54.948Z,996.73
2019-01-29T06:23:54.859Z,996.70
2019-01-29T06:24:54.773Z,996.77
2019-01-29T06:25:54.686Z,996.78
2019-01-29T06:26:54.599Z,996.78
2019-01-29T06:27:54.509Z,996.81
2019-01-29T06:28:54.422Z,996.83
2019-01-29T06:29:54.336Z,996.82
2019-01-29T06:30:54.236Z,996.88
2019-01-29T06:31:54.148Z,996.95
2019-01-29T06:32:54.066Z,996.93
2019-01-29T06:33:53.977Z,996.89
2019-01-29T06:34:53.885Z,996.96
2019-01-29T06:35:53.799Z,996.94
2019-01-29T06:36:53.712Z,997.01
2019-01-29T06:37:53.612Z,996.95
2019-01-29T06:38:53.529Z,996.95
2019-01-29T06:39:53.436Z,996.97
2019-01-29T06:40:53.348Z,997.02
2019-01-29T06:41:53.260Z,997.03
2019-01-29T06:42:53.174Z,997.07
2019-01-29T06:43:53.100Z,997.06
2019-01-29T06:44:53.013Z,997.09
2019-01-29T06:45:52.899Z,997.08
2019-01-29T06:46:52.811Z,997.09
2019-01-29T06:47:52.786Z,997.09
2019-01-29T06:48:53.895Z,997.13
2019-01-29T06:49:52.549Z,997.13
2019-01-29T06:50:52.461Z,997.17
2019-01-29T06:51:52.375Z,997.23
2019-01-29T06:52:52.277Z,997.15
2019-01-29T06:53:52.187Z,997.20
2019-01-29T06:54:52.100Z,997.27
2019-01-29T06:55:52.012Z,997.26
2019-01-29T06:56:51.926Z,997.33
2019-01-29T06:57:55.664Z,997.29
2019-01-29T06:58:51.753Z,997.36
2019-01-29T06:59:51.662Z,997.38
2019-01-29T07:00:51.563Z,997.40
2019-01-29T07:01:51.480Z,997.45
2019-01-29T07:02:51.401Z,997.44
2019-01-29T07:03:51.301Z,997.45
2019-01-29T07:04:51.213Z,997.45
2019-01-29T07:05:51.131Z,997.46
2019-01-29T07:06:51.037Z,997.48
2019-01-29T07:07:50.943Z,997.51
2019-01-29T07:08:50.851Z,997.53
2019-01-29T07:09:50.764Z,997.51
2019-01-29T07:10:50.677Z,997.58
2019-01-29T07:11:50.590Z,997.56
2019-01-29T07:12:50.503Z,997.57
2019-01-29T07:13:50.414Z,997.52
2019-01-29T07:14:50.327Z,997.59
2019-01-29T07:15:50.239Z,997.60
2019-01-29T07:16:50.140Z,997.62
2019-01-29T07:17:50.053Z,997.60
2019-01-29T07:18:49.965Z,997.64
2019-01-29T07:19:49.879Z,997.67
2019-01-29T07:20:49.789Z,997.64
2019-01-29T07:21:49.703Z,997.68
2019-01-29T07:22:49.628Z,997.74
2019-01-29T07:23:49.528Z,997.74
2019-01-29T07:24:49.428Z,997.73
2019-01-29T07:25:49.341Z,997.74
2019-01-29T07:26:49.254Z,997.73
2019-01-29T07:27:49.165Z,997.79
2019-01-29T07:28:49.079Z,997.80
2019-01-29T07:29:48.990Z,997.76
2019-01-29T07:30:48.904Z,997.76
2019-01-29T07:31:48.828Z,997.80
2019-01-29T07:32:48.730Z,997.80
2019-01-29T07:33:48.641Z,997.79
2019-01-29T07:34:48.542Z,997.82
2019-01-29T07:35:48.456Z,997.83
2019-01-29T07:36:48.368Z,997.80
2019-01-29T07:37:48.279Z,997.79
2019-01-29T07:38:48.195Z,997.85
2019-01-29T07:39:48.104Z,997.84
2019-01-29T07:40:48.054Z,997.86
2019-01-29T07:41:47.930Z,997.92
2019-01-29T07:42:47.845Z,997.90
2019-01-29T07:43:47.743Z,997.92
2019-01-29T07:44:47.654Z,997.89
2019-01-29T07:45:47.569Z,997.90
2019-01-29T07:46:47.481Z,997.94
2019-01-29T07:47:47.393Z,997.95
2019-01-29T07:48:47.309Z,997.92
2019-01-29T07:49:47.218Z,997.95
2019-01-29T07:50:47.137Z,997.98
2019-01-29T07:51:47.042Z,997.95
2019-01-29T07:52:46.957Z,997.92
2019-01-29T07:53:46.868Z,997.98
2019-01-29T07:54:51.264Z,997.96
2019-01-29T07:55:46.694Z,997.96
2019-01-29T07:56:46.593Z,997.97
2019-01-29T07:57:46.506Z,998.00
2019-01-29T07:58:46.422Z,997.98
2019-01-29T07:59:46.332Z,998.00
2019-01-29T08:00:46.245Z,998.00
2019-01-29T08:01:46.157Z,998.01
2019-01-29T08:02:46.069Z,997.96
2019-01-29T08:03:45.983Z,997.99
2019-01-29T08:04:45.894Z,998.03
2019-01-29T08:05:45.817Z,998.05
2019-01-29T08:06:45.722Z,998.00
2019-01-29T08:07:45.621Z,998.00
2019-01-29T08:08:45.533Z,998.00
2019-01-29T08:09:45.445Z,997.98
2019-01-29T08:10:45.357Z,998.07
2019-01-29T08:11:45.272Z,998.07
2019-01-29T08:12:45.185Z,998.05
2019-01-29T08:13:45.095Z,998.03
2019-01-29T08:14:45.011Z,998.12
2019-01-29T08:15:44.920Z,998.08
2019-01-29T08:16:44.834Z,998.15
2019-01-29T08:17:44.745Z,998.17
2019-01-29T08:18:44.659Z,998.20
2019-01-29T08:19:44.570Z,998.21
2019-01-29T08:20:44.484Z,998.23
2019-01-29T08:21:44.408Z,998.24
2019-01-29T08:22:44.310Z,998.25
2019-01-29T08:23:44.210Z,998.28
2019-01-29T08:24:51.626Z,998.32
2019-01-29T08:25:47.884Z,998.33
2019-01-29T08:26:43.948Z,998.33
2019-01-29T08:27:43.860Z,998.37
2019-01-29T08:28:43.771Z,998.35
2019-01-29T08:29:43.685Z,998.38
2019-01-29T08:30:43.597Z,998.38
2019-01-29T08:31:43.510Z,998.39
2019-01-29T08:32:43.422Z,998.45
2019-01-29T08:33:43.335Z,998.40
2019-01-29T08:34:43.260Z,998.43
2019-01-29T08:35:43.163Z,998.40
2019-01-29T08:36:43.075Z,998.46
2019-01-29T08:37:42.990Z,998.44
2019-01-29T08:38:42.897Z,998.44
2019-01-29T08:39:42.811Z,998.48
2019-01-29T08:40:42.723Z,998.52
2019-01-29T08:41:42.645Z,998.52
2019-01-29T08:42:42.562Z,998.57
2019-01-29T08:43:42.462Z,998.54
2019-01-29T08:44:42.362Z,998.54
2019-01-29T08:45:42.275Z,998.58
2019-01-29T08:46:42.192Z,998.58
2019-01-29T08:47:42.098Z,998.61
2019-01-29T08:48:42.011Z,998.63
2019-01-29T08:49:41.923Z,998.60
2019-01-29T08:50:41.837Z,998.61
2019-01-29T08:51:41.763Z,998.62
2019-01-29T08:52:41.664Z,998.65
2019-01-29T08:53:41.574Z,998.66
2019-01-29T08:54:41.489Z,998.62
2019-01-29T08:55:41.400Z,998.68
2019-01-29T08:56:41.312Z,998.69
2019-01-29T08:57:41.227Z,998.70
2019-01-29T08:58:41.139Z,998.72
2019-01-29T08:59:41.050Z,998.75
2019-01-29T09:00:40.962Z,998.78
2019-01-29T09:01:40.876Z,998.71
2019-01-29T09:02:40.788Z,998.73
2019-01-29T09:03:40.700Z,998.73
2019-01-29T09:04:40.613Z,998.68
2019-01-29T09:05:40.525Z,998.74
2019-01-29T09:06:40.439Z,998.73
2019-01-29T09:07:40.351Z,998.72
2019-01-29T09:08:40.267Z,998.77
2019-01-29T09:09:40.175Z,998.73
2019-01-29T09:10:40.089Z,998.71
2019-01-29T09:11:40.001Z,998.80
2019-01-29T09:12:39.913Z,998.77
2019-01-29T09:13:40.567Z,998.77
2019-01-29T09:14:39.739Z,998.76
2019-01-29T09:15:39.651Z,998.82
2019-01-29T09:16:39.564Z,998.80
2019-01-29T09:17:39.476Z,998.79
2019-01-29T09:18:39.389Z,998.84
2019-01-29T09:19:39.302Z,998.82
2019-01-29T09:20:39.215Z,998.85
2019-01-29T09:21:39.128Z,998.84
2019-01-29T09:22:39.040Z,998.85
2019-01-29T09:23:38.958Z,998.79
2019-01-29T09:24:38.865Z,998.86
2019-01-29T09:25:38.777Z,998.85
2019-01-29T09:26:38.690Z,998.88
2019-01-29T09:27:38.619Z,998.92
2019-01-29T09:28:38.531Z,998.90
2019-01-29T09:29:38.429Z,998.90
2019-01-29T09:30:38.341Z,998.91
2019-01-29T09:31:38.253Z,998.93
2019-01-29T09:32:38.155Z,998.96
2019-01-29T09:33:38.078Z,998.97
2019-01-29T09:34:37.991Z,999.00
2019-01-29T09:35:37.916Z,998.95
2019-01-29T09:36:37.816Z,999.02
2019-01-29T09:37:37.728Z,998.95
2019-01-29T09:38:37.643Z,998.95
2019-01-29T09:39:37.553Z,998.91
2019-01-29T09:40:37.455Z,998.98
2019-01-29T09:41:37.378Z,998.94
2019-01-29T09:42:37.294Z,998.94
2019-01-29T09:43:37.207Z,998.99
2019-01-29T09:44:37.117Z,999.02
2019-01-29T09:45:37.029Z,999.00
2019-01-29T09:46:36.945Z,998.98
2019-01-29T09:47:36.872Z,999.00
2019-01-29T09:48:36.767Z,999.02
2019-01-29T09:49:36.679Z,999.09
2019-01-29T09:50:36.597Z,999.05
2019-01-29T09:51:36.507Z,999.06
2019-01-29T09:52:36.418Z,999.08
2019-01-29T09:53:36.331Z,999.10
2019-01-29T09:54:36.243Z,999.09
2019-01-29T09:55:36.156Z,999.10
2019-01-29T09:56:36.068Z,999.13
2019-01-29T09:57:35.980Z,999.15
2019-01-29T09:58:35.894Z,999.13
2019-01-29T09:59:35.808Z,999.13
2019-01-29T10:00:35.720Z,999.14
2019-01-29T10:01:35.634Z,999.20
2019-01-29T10:02:35.544Z,999.16
2019-01-29T10:03:35.457Z,999.18
2019-01-29T10:04:35.369Z,999.19
2019-01-29T10:05:35.295Z,999.16
2019-01-29T10:06:35.195Z,999.10
2019-01-29T10:07:35.108Z,999.24
2019-01-29T10:08:35.019Z,999.17
2019-01-29T10:09:34.931Z,999.16
2019-01-29T10:10:34.845Z,999.12
2019-01-29T10:11:34.757Z,999.17
2019-01-29T10:12:34.675Z,999.17
2019-01-29T10:13:34.581Z,999.15
2019-01-29T10:14:34.496Z,999.17
2019-01-29T10:15:34.407Z,999.18
2019-01-29T10:16:34.320Z,999.19
2019-01-29T10:17:34.233Z,999.17
2019-01-29T10:18:34.145Z,999.18
2019-01-29T10:19:34.058Z,999.16
2019-01-29T10:20:33.976Z,999.21
2019-01-29T10:21:33.882Z,999.18
2019-01-29T10:22:33.797Z,999.13
2019-01-29T10:23:33.709Z,999.14
2019-01-29T10:24:33.621Z,999.16
2019-01-29T10:25:37.855Z,999.13
2019-01-29T10:26:33.447Z,999.13
2019-01-29T10:27:33.359Z,999.13
2019-01-29T10:28:33.274Z,999.17
2019-01-29T10:29:33.185Z,999.12
2019-01-29T10:30:33.109Z,999.14
2019-01-29T10:31:33.012Z,999.11
2019-01-29T10:32:32.939Z,999.12
2019-01-29T10:33:32.847Z,999.11
2019-01-29T10:34:32.761Z,999.07
2019-01-29T10:35:32.673Z,999.09
2019-01-29T10:36:32.585Z,999.12
2019-01-29T10:37:32.499Z,999.09
2019-01-29T10:38:32.409Z,999.11
2019-01-29T10:39:32.322Z,999.10
2019-01-29T10:40:32.234Z,999.13
2019-01-29T10:41:32.148Z,999.08
2019-01-29T10:42:32.141Z,999.14
2019-01-29T10:43:31.976Z,999.11
2019-01-29T10:44:31.885Z,999.11
2019-01-29T10:45:31.799Z,999.13
2019-01-29T10:46:31.711Z,999.12
2019-01-29T10:47:31.627Z,999.12
2019-01-29T10:48:31.536Z,999.13
2019-01-29T10:49:31.456Z,999.12
2019-01-29T10:50:31.367Z,999.12
2019-01-29T10:51:31.274Z,999.12
2019-01-29T10:52:31.186Z,999.16
2019-01-29T10:53:31.100Z,999.05
2019-01-29T10:54:31.024Z,999.11
2019-01-29T10:55:30.938Z,999.11
2019-01-29T10:56:30.850Z,999.11
2019-01-29T10:57:30.762Z,999.12
2019-01-29T10:58:30.674Z,999.09
2019-01-29T10:59:30.586Z,999.09
2019-01-29T11:00:30.506Z,999.09
2019-01-29T11:01:30.414Z,999.10
2019-01-29T11:02:30.328Z,999.09
2019-01-29T11:03:30.253Z,999.11
2019-01-29T11:04:30.150Z,999.13
2019-01-29T11:05:30.064Z,999.08
2019-01-29T11:06:29.976Z,999.12
2019-01-29T11:07:29.888Z,999.10
2019-01-29T11:08:29.812Z,999.08
2019-01-29T11:09:29.725Z,999.10
2019-01-29T11:10:29.639Z,999.09
2019-01-29T11:11:29.553Z,999.10
2019-01-29T11:12:29.463Z,999.09
2019-01-29T11:13:29.376Z,999.10
2019-01-29T11:14:29.288Z,999.11
2019-01-29T11:15:29.204Z,999.12
2019-01-29T11:16:29.116Z,999.09
2019-01-29T11:17:29.073Z,999.13
2019-01-29T11:18:28.938Z,999.15
2019-01-29T11:19:28.852Z,999.15
2019-01-29T11:20:28.764Z,999.13
2019-01-29T11:21:28.677Z,999.13
2019-01-29T11:22:28.591Z,999.13
2019-01-29T11:23:28.514Z,999.15
2019-01-29T11:24:28.427Z,999.13
2019-01-29T11:25:28.339Z,999.14
2019-01-29T11:26:28.253Z,999.08
2019-01-29T11:27:28.166Z,999.12
2019-01-29T11:28:28.078Z,999.09
2019-01-29T11:29:27.990Z,999.05
2019-01-29T11:30:27.902Z,999.08
2019-01-29T11:31:29.559Z,999.08
2019-01-29T11:32:27.730Z,999.08
2019-01-29T11:33:27.640Z,999.10
2019-01-29T11:34:27.554Z,999.11
2019-01-29T11:35:27.481Z,999.12
2019-01-29T11:36:27.379Z,999.13
2019-01-29T11:37:27.304Z,999.12
2019-01-29T11:38:27.216Z,999.15
2019-01-29T11:39:27.150Z,999.14
2019-01-29T11:40:27.041Z,999.15
2019-01-29T11:41:26.958Z,999.14
2019-01-29T11:42:26.866Z,999.13
2019-01-29T11:43:26.779Z,999.15
2019-01-29T11:44:26.694Z,999.17
2019-01-29T11:45:26.669Z,999.18
2019-01-29T11:46:26.516Z,999.18
2019-01-29T11:47:26.434Z,999.19
2019-01-29T11:48:26.347Z,999.19
2019-01-29T11:49:26.255Z,999.19
2019-01-29T11:50:26.180Z,999.17
2019-01-29T11:51:26.093Z,999.17
2019-01-29T11:52:26.005Z,999.21
2019-01-29T11:53:25.930Z,999.20
2019-01-29T11:54:25.834Z,999.20
2019-01-29T11:55:25.742Z,999.21
2019-01-29T11:56:25.661Z,999.18
2019-01-29T11:57:25.567Z,999.23
2019-01-29T11:58:25.481Z,999.17
2019-01-29T11:59:25.424Z,999.22
2019-01-29T12:00:25.313Z,999.19
2019-01-29T12:01:25.219Z,999.18
2019-01-29T12:02:28.381Z,999.22
2019-01-29T12:03:25.045Z,999.24
2019-01-29T12:04:24.970Z,999.20
2019-01-29T12:05:24.882Z,999.13
2019-01-29T12:06:24.793Z,999.17
2019-01-29T12:07:24.724Z,999.18
2019-01-29T12:08:24.621Z,999.26
2019-01-29T12:09:24.532Z,999.23
2019-01-29T12:10:24.443Z,999.32
2019-01-29T12:11:24.358Z,999.27
2019-01-29T12:12:24.270Z,999.24
2019-01-29T12:13:24.183Z,999.26
2019-01-29T12:14:24.096Z,999.26
2019-01-29T12:15:24.019Z,999.28
2019-01-29T12:16:23.935Z,999.26
2019-01-29T12:17:23.844Z,999.30
2019-01-29T12:18:23.757Z,999.27
2019-01-29T12:19:23.670Z,999.30
2019-01-29T12:20:23.583Z,999.28
2019-01-29T12:21:23.495Z,999.31
2019-01-29T12:22:23.409Z,999.30
2019-01-29T12:23:23.320Z,999.29
2019-01-29T12:24:23.233Z,999.30
2019-01-29T12:25:23.146Z,999.29
2019-01-29T12:26:23.070Z,999.32
2019-01-29T12:27:22.984Z,999.30